LTAG/ADF METAR and TAF weather

Enter ICAO airport designator
Station Type Date Time Source
LTAG METAR 2020/04/09 10:20 UTC NOAA

LTAG 091020Z 16004KT 9999 FEW022CB BKN027 18/18 Q1011 TEMPO -TSRA


Station Type Date Time Source
LTAG Decoded METAR 2020/04/09 10:20 UTC NOAA

Adana / Incirlik, Turkey (LTAG) 37-00N 035-25E 66M
Apr 09, 2020 - 06:20 AM EDT / 2020.04.09 1020 UTC
Wind: from the SSE (160 degrees) at 5 MPH (4 KT):0
Visibility: greater than 7 mile(s):0
Sky conditions: mostly cloudy
Weather: Cumulonimbus clouds observed
Temperature: 64 F (18 C)
Dew Point: 64 F (18 C)
Relative Humidity: 100%
Pressure (altimeter): 29.85 in. Hg (1011 hPa)
ob: LTAG 091020Z 16004KT 9999 FEW022CB BKN027 18/18 Q1011 TEMPO -TSRA
cycle: 10

Station Type Date Time Source
LTAG TAF 2020/04/09 08:25 UTC NOAA

TAF
AMD LTAG 090813Z 0908/1006 15009KT 9999 BKN030
TEMPO 0908/0912 -TSRA FEW020CB BKN030
TEMPO 0912/0915 -TSRA FEW020CB BKN030
BECMG 0923/1001 SCT017

Example: see airport list